sensor_id;sensor_type;location;lat;lon;timestamp;P1;durP1;ratioP1;P2;durP2;ratioP2
32934;SDS011;19292;51.532;7.650;2022-07-25T00:02:12;27.10;;;25.50;;
32934;SDS011;19292;51.532;7.650;2022-07-25T00:04:37;26.40;;;24.63;;
32934;SDS011;19292;51.532;7.650;2022-07-25T00:07:03;26.10;;;24.45;;
32934;SDS011;19292;51.532;7.650;2022-07-25T00:09:28;30.58;;;28.75;;
32934;SDS011;19292;51.532;7.650;2022-07-25T00:11:54;29.70;;;27.80;;
32934;SDS011;19292;51.532;7.650;2022-07-25T00:14:19;24.80;;;23.30;;
32934;SDS011;19292;51.532;7.650;2022-07-25T00:16:44;24.45;;;22.85;;
32934;SDS011;19292;51.532;7.650;2022-07-25T00:19:10;24.58;;;23.00;;
32934;SDS011;19292;51.532;7.650;2022-07-25T00:21:35;22.15;;;20.55;;
32934;SDS011;19292;51.532;7.650;2022-07-25T00:24:00;25.48;;;23.92;;
32934;SDS011;19292;51.532;7.650;2022-07-25T00:26:26;26.85;;;25.30;;
32934;SDS011;19292;51.532;7.650;2022-07-25T00:28:51;22.85;;;21.42;;
32934;SDS011;19292;51.532;7.650;2022-07-25T00:31:16;25.50;;;24.02;;
32934;SDS011;19292;51.532;7.650;2022-07-25T00:33:42;25.77;;;24.27;;
32934;SDS011;19292;51.532;7.650;2022-07-25T00:36:07;23.15;;;21.58;;
32934;SDS011;19292;51.532;7.650;2022-07-25T00:38:33;29.27;;;27.45;;
32934;SDS011;19292;51.532;7.650;2022-07-25T00:40:58;27.75;;;26.17;;
32934;SDS011;19292;51.532;7.650;2022-07-25T00:43:26;23.38;;;21.98;;
32934;SDS011;19292;51.532;7.650;2022-07-25T00:45:52;23.20;;;21.73;;
32934;SDS011;19292;51.532;7.650;2022-07-25T00:48:17;26.05;;;24.35;;
32934;SDS011;19292;51.532;7.650;2022-07-25T00:50:42;26.42;;;24.73;;
32934;SDS011;19292;51.532;7.650;2022-07-25T00:53:08;25.88;;;24.35;;
32934;SDS011;19292;51.532;7.650;2022-07-25T00:55:33;30.17;;;28.38;;
32934;SDS011;19292;51.532;7.650;2022-07-25T00:57:59;23.90;;;22.25;;
32934;SDS011;19292;51.532;7.650;2022-07-25T01:00:24;24.08;;;22.65;;
32934;SDS011;19292;51.532;7.650;2022-07-25T01:02:49;19.70;;;18.42;;
32934;SDS011;19292;51.532;7.650;2022-07-25T01:05:15;20.27;;;18.90;;
32934;SDS011;19292;51.532;7.650;2022-07-25T01:07:40;21.65;;;20.25;;
32934;SDS011;19292;51.532;7.650;2022-07-25T01:10:06;24.15;;;22.73;;
32934;SDS011;19292;51.532;7.650;2022-07-25T01:12:42;23.05;;;21.50;;
32934;SDS011;19292;51.532;7.650;2022-07-25T01:15:08;20.00;;;18.83;;
32934;SDS011;19292;51.532;7.650;2022-07-25T01:17:34;18.92;;;17.58;;
32934;SDS011;19292;51.532;7.650;2022-07-25T01:19:59;21.73;;;20.33;;
32934;SDS011;19292;51.532;7.650;2022-07-25T01:22:25;22.58;;;21.13;;
32934;SDS011;19292;51.532;7.650;2022-07-25T01:24:50;18.20;;;16.83;;
32934;SDS011;19292;51.532;7.650;2022-07-25T01:27:15;19.95;;;18.73;;
32934;SDS011;19292;51.532;7.650;2022-07-25T01:29:41;20.63;;;19.15;;
32934;SDS011;19292;51.532;7.650;2022-07-25T01:32:06;20.27;;;18.88;;
32934;SDS011;19292;51.532;7.650;2022-07-25T01:34:31;21.30;;;19.98;;
32934;SDS011;19292;51.532;7.650;2022-07-25T01:36:57;20.20;;;18.85;;
32934;SDS011;19292;51.532;7.650;2022-07-25T01:39:22;21.40;;;19.95;;
32934;SDS011;19292;51.532;7.650;2022-07-25T01:41:47;24.23;;;22.73;;
32934;SDS011;19292;51.532;7.650;2022-07-25T01:44:13;24.40;;;22.80;;
32934;SDS011;19292;51.532;7.650;2022-07-25T01:46:38;23.35;;;21.77;;
32934;SDS011;19292;51.532;7.650;2022-07-25T01:49:03;20.63;;;19.38;;
32934;SDS011;19292;51.532;7.650;2022-07-25T01:51:29;23.27;;;21.58;;
32934;SDS011;19292;51.532;7.650;2022-07-25T01:53:54;21.63;;;20.33;;
32934;SDS011;19292;51.532;7.650;2022-07-25T01:56:20;20.30;;;19.05;;
32934;SDS011;19292;51.532;7.650;2022-07-25T01:58:45;24.95;;;23.20;;
32934;SDS011;19292;51.532;7.650;2022-07-25T02:01:10;23.95;;;22.48;;
32934;SDS011;19292;51.532;7.650;2022-07-25T02:03:36;23.55;;;21.88;;
32934;SDS011;19292;51.532;7.650;2022-07-25T02:06:03;23.35;;;21.75;;
32934;SDS011;19292;51.532;7.650;2022-07-25T02:08:29;25.23;;;23.55;;
32934;SDS011;19292;51.532;7.650;2022-07-25T02:10:55;21.58;;;20.27;;
32934;SDS011;19292;51.532;7.650;2022-07-25T02:13:21;21.70;;;20.40;;
32934;SDS011;19292;51.532;7.650;2022-07-25T02:15:47;22.52;;;20.80;;
32934;SDS011;19292;51.532;7.650;2022-07-25T02:18:12;22.92;;;21.48;;
32934;SDS011;19292;51.532;7.650;2022-07-25T02:20:37;25.63;;;23.73;;
32934;SDS011;19292;51.532;7.650;2022-07-25T02:23:03;23.17;;;21.80;;
32934;SDS011;19292;51.532;7.650;2022-07-25T02:25:29;24.15;;;22.70;;
32934;SDS011;19292;51.532;7.650;2022-07-25T02:27:54;23.73;;;22.20;;
32934;SDS011;19292;51.532;7.650;2022-07-25T02:30:20;23.83;;;22.35;;
32934;SDS011;19292;51.532;7.650;2022-07-25T02:32:45;22.60;;;21.00;;
32934;SDS011;19292;51.532;7.650;2022-07-25T02:35:10;23.25;;;21.75;;
32934;SDS011;19292;51.532;7.650;2022-07-25T02:37:36;22.92;;;21.58;;
32934;SDS011;19292;51.532;7.650;2022-07-25T02:40:01;24.08;;;22.67;;
32934;SDS011;19292;51.532;7.650;2022-07-25T02:42:27;21.08;;;19.77;;
32934;SDS011;19292;51.532;7.650;2022-07-25T02:44:55;23.17;;;21.58;;
32934;SDS011;19292;51.532;7.650;2022-07-25T02:47:20;23.95;;;22.42;;
32934;SDS011;19292;51.532;7.650;2022-07-25T02:49:45;28.35;;;26.40;;
32934;SDS011;19292;51.532;7.650;2022-07-25T02:52:13;22.75;;;21.25;;
32934;SDS011;19292;51.532;7.650;2022-07-25T02:54:39;24.10;;;22.70;;
32934;SDS011;19292;51.532;7.650;2022-07-25T02:57:04;24.15;;;22.55;;
32934;SDS011;19292;51.532;7.650;2022-07-25T02:59:29;23.67;;;22.25;;
32934;SDS011;19292;51.532;7.650;2022-07-25T03:01:55;25.48;;;23.77;;
32934;SDS011;19292;51.532;7.650;2022-07-25T03:04:20;21.55;;;20.10;;
32934;SDS011;19292;51.532;7.650;2022-07-25T03:06:45;24.15;;;22.75;;
32934;SDS011;19292;51.532;7.650;2022-07-25T03:09:11;25.95;;;24.42;;
32934;SDS011;19292;51.532;7.650;2022-07-25T03:11:36;26.42;;;24.83;;
32934;SDS011;19292;51.532;7.650;2022-07-25T03:14:02;22.55;;;21.08;;
32934;SDS011;19292;51.532;7.650;2022-07-25T03:16:27;26.42;;;24.92;;
32934;SDS011;19292;51.532;7.650;2022-07-25T03:18:53;22.23;;;20.83;;
32934;SDS011;19292;51.532;7.650;2022-07-25T03:21:18;26.90;;;25.30;;
32934;SDS011;19292;51.532;7.650;2022-07-25T03:23:43;22.38;;;20.88;;
32934;SDS011;19292;51.532;7.650;2022-07-25T03:26:09;26.20;;;24.58;;
32934;SDS011;19292;51.532;7.650;2022-07-25T03:28:34;24.80;;;23.20;;
32934;SDS011;19292;51.532;7.650;2022-07-25T03:31:00;26.02;;;24.25;;
32934;SDS011;19292;51.532;7.650;2022-07-25T03:33:25;20.23;;;18.98;;
32934;SDS011;19292;51.532;7.650;2022-07-25T03:35:51;24.45;;;22.85;;
32934;SDS011;19292;51.532;7.650;2022-07-25T03:38:16;20.58;;;19.27;;
32934;SDS011;19292;51.532;7.650;2022-07-25T03:40:41;22.35;;;20.95;;
32934;SDS011;19292;51.532;7.650;2022-07-25T03:43:07;23.92;;;22.50;;
32934;SDS011;19292;51.532;7.650;2022-07-25T03:45:32;19.85;;;18.50;;
32934;SDS011;19292;51.532;7.650;2022-07-25T03:47:58;24.83;;;23.33;;
32934;SDS011;19292;51.532;7.650;2022-07-25T03:50:23;22.67;;;21.02;;
32934;SDS011;19292;51.532;7.650;2022-07-25T03:52:48;21.02;;;19.60;;
32934;SDS011;19292;51.532;7.650;2022-07-25T03:55:14;24.10;;;22.45;;
32934;SDS011;19292;51.532;7.650;2022-07-25T03:57:39;21.75;;;20.20;;
32934;SDS011;19292;51.532;7.650;2022-07-25T04:00:05;21.17;;;19.58;;
32934;SDS011;19292;51.532;7.650;2022-07-25T04:02:31;18.95;;;17.75;;
32934;SDS011;19292;51.532;7.650;2022-07-25T04:04:57;21.42;;;19.95;;
32934;SDS011;19292;51.532;7.650;2022-07-25T04:07:22;18.05;;;16.95;;
32934;SDS011;19292;51.532;7.650;2022-07-25T04:09:47;21.77;;;20.58;;
32934;SDS011;19292;51.532;7.650;2022-07-25T04:12:13;20.20;;;18.90;;
32934;SDS011;19292;51.532;7.650;2022-07-25T04:14:38;19.02;;;17.73;;
32934;SDS011;19292;51.532;7.650;2022-07-25T04:17:03;22.58;;;21.00;;
32934;SDS011;19292;51.532;7.650;2022-07-25T04:19:30;25.23;;;23.70;;
32934;SDS011;19292;51.532;7.650;2022-07-25T04:21:55;22.45;;;20.95;;
32934;SDS011;19292;51.532;7.650;2022-07-25T04:24:21;26.98;;;25.27;;
32934;SDS011;19292;51.532;7.650;2022-07-25T04:26:46;20.98;;;19.80;;
32934;SDS011;19292;51.532;7.650;2022-07-25T04:29:11;22.30;;;20.88;;
32934;SDS011;19292;51.532;7.650;2022-07-25T04:31:37;23.27;;;21.88;;
32934;SDS011;19292;51.532;7.650;2022-07-25T04:34:02;22.48;;;20.80;;
32934;SDS011;19292;51.532;7.650;2022-07-25T04:36:27;24.98;;;23.48;;
32934;SDS011;19292;51.532;7.650;2022-07-25T04:38:53;22.80;;;21.30;;
32934;SDS011;19292;51.532;7.650;2022-07-25T04:41:19;25.08;;;23.52;;
32934;SDS011;19292;51.532;7.650;2022-07-25T04:43:45;26.48;;;24.88;;
32934;SDS011;19292;51.532;7.650;2022-07-25T04:46:10;25.77;;;24.27;;
32934;SDS011;19292;51.532;7.650;2022-07-25T04:48:35;22.98;;;21.55;;
32934;SDS011;19292;51.532;7.650;2022-07-25T04:51:01;25.35;;;23.75;;
32934;SDS011;19292;51.532;7.650;2022-07-25T04:53:26;21.92;;;20.42;;
32934;SDS011;19292;51.532;7.650;2022-07-25T04:55:52;25.23;;;23.70;;
32934;SDS011;19292;51.532;7.650;2022-07-25T04:58:17;25.02;;;23.42;;
32934;SDS011;19292;51.532;7.650;2022-07-25T05:00:42;24.77;;;23.30;;
32934;SDS011;19292;51.532;7.650;2022-07-25T05:03:08;22.17;;;20.73;;
32934;SDS011;19292;51.532;7.650;2022-07-25T05:05:33;20.15;;;19.02;;
32934;SDS011;19292;51.532;7.650;2022-07-25T05:07:59;22.42;;;20.67;;
32934;SDS011;19292;51.532;7.650;2022-07-25T05:10:25;22.33;;;21.00;;
32934;SDS011;19292;51.532;7.650;2022-07-25T05:12:51;20.85;;;19.38;;
32934;SDS011;19292;51.532;7.650;2022-07-25T05:15:16;21.02;;;19.42;;
32934;SDS011;19292;51.532;7.650;2022-07-25T05:17:41;21.20;;;19.67;;
32934;SDS011;19292;51.532;7.650;2022-07-25T05:20:07;23.13;;;21.67;;
32934;SDS011;19292;51.532;7.650;2022-07-25T05:22:33;20.63;;;19.33;;
32934;SDS011;19292;51.532;7.650;2022-07-25T05:24:58;18.35;;;17.17;;
32934;SDS011;19292;51.532;7.650;2022-07-25T05:27:26;18.23;;;17.02;;
32934;SDS011;19292;51.532;7.650;2022-07-25T05:29:52;16.65;;;15.27;;
32934;SDS011;19292;51.532;7.650;2022-07-25T05:32:17;16.08;;;15.00;;
32934;SDS011;19292;51.532;7.650;2022-07-25T05:34:43;14.35;;;13.23;;
32934;SDS011;19292;51.532;7.650;2022-07-25T05:37:08;14.25;;;13.13;;
32934;SDS011;19292;51.532;7.650;2022-07-25T05:39:34;14.02;;;13.07;;
32934;SDS011;19292;51.532;7.650;2022-07-25T05:42:01;12.10;;;11.10;;
32934;SDS011;19292;51.532;7.650;2022-07-25T05:44:26;12.23;;;11.20;;
32934;SDS011;19292;51.532;7.650;2022-07-25T05:46:52;13.77;;;12.82;;
32934;SDS011;19292;51.532;7.650;2022-07-25T05:49:17;13.43;;;12.57;;
32934;SDS011;19292;51.532;7.650;2022-07-25T05:51:42;12.90;;;12.00;;
32934;SDS011;19292;51.532;7.650;2022-07-25T05:54:08;15.23;;;14.13;;
32934;SDS011;19292;51.532;7.650;2022-07-25T05:56:33;14.18;;;13.05;;
32934;SDS011;19292;51.532;7.650;2022-07-25T05:58:58;13.73;;;12.73;;
32934;SDS011;19292;51.532;7.650;2022-07-25T06:01:24;13.13;;;12.30;;
32934;SDS011;19292;51.532;7.650;2022-07-25T06:03:49;14.73;;;13.40;;
32934;SDS011;19292;51.532;7.650;2022-07-25T06:06:14;13.88;;;12.68;;
32934;SDS011;19292;51.532;7.650;2022-07-25T06:08:40;14.25;;;13.20;;
32934;SDS011;19292;51.532;7.650;2022-07-25T06:11:05;14.20;;;13.10;;
32934;SDS011;19292;51.532;7.650;2022-07-25T06:13:31;12.85;;;11.85;;
32934;SDS011;19292;51.532;7.650;2022-07-25T06:15:57;14.18;;;12.88;;
32934;SDS011;19292;51.532;7.650;2022-07-25T06:18:23;14.02;;;13.02;;
32934;SDS011;19292;51.532;7.650;2022-07-25T06:20:48;14.35;;;13.35;;
32934;SDS011;19292;51.532;7.650;2022-07-25T06:23:14;14.32;;;13.27;;
32934;SDS011;19292;51.532;7.650;2022-07-25T06:25:40;14.18;;;13.18;;
32934;SDS011;19292;51.532;7.650;2022-07-25T06:28:05;14.75;;;13.77;;
32934;SDS011;19292;51.532;7.650;2022-07-25T06:30:31;16.25;;;15.15;;
32934;SDS011;19292;51.532;7.650;2022-07-25T06:32:56;15.63;;;14.63;;
32934;SDS011;19292;51.532;7.650;2022-07-25T06:35:22;13.75;;;12.85;;
32934;SDS011;19292;51.532;7.650;2022-07-25T06:37:47;16.30;;;15.00;;
32934;SDS011;19292;51.532;7.650;2022-07-25T06:40:13;16.25;;;15.02;;
32934;SDS011;19292;51.532;7.650;2022-07-25T06:42:44;14.18;;;13.13;;
32934;SDS011;19292;51.532;7.650;2022-07-25T06:45:11;15.88;;;14.77;;
32934;SDS011;19292;51.532;7.650;2022-07-25T06:47:41;15.93;;;14.82;;
32934;SDS011;19292;51.532;7.650;2022-07-25T06:50:08;16.65;;;15.50;;
32934;SDS011;19292;51.532;7.650;2022-07-25T06:52:35;17.38;;;16.27;;
32934;SDS011;19292;51.532;7.650;2022-07-25T06:55:04;17.35;;;16.20;;
32934;SDS011;19292;51.532;7.650;2022-07-25T06:57:29;18.02;;;16.73;;
32934;SDS011;19292;51.532;7.650;2022-07-25T06:59:55;23.60;;;22.13;;
32934;SDS011;19292;51.532;7.650;2022-07-25T07:02:20;21.48;;;19.98;;
32934;SDS011;19292;51.532;7.650;2022-07-25T07:04:46;19.92;;;18.73;;
32934;SDS011;19292;51.532;7.650;2022-07-25T07:07:11;18.92;;;17.73;;
32934;SDS011;19292;51.532;7.650;2022-07-25T07:09:36;19.17;;;17.92;;
32934;SDS011;19292;51.532;7.650;2022-07-25T07:12:02;20.52;;;19.15;;
32934;SDS011;19292;51.532;7.650;2022-07-25T07:14:28;18.90;;;17.70;;
32934;SDS011;19292;51.532;7.650;2022-07-25T07:16:53;21.92;;;20.02;;
32934;SDS011;19292;51.532;7.650;2022-07-25T07:19:18;19.52;;;18.23;;
32934;SDS011;19292;51.532;7.650;2022-07-25T07:21:44;18.52;;;17.23;;
32934;SDS011;19292;51.532;7.650;2022-07-25T07:24:09;21.33;;;20.02;;
32934;SDS011;19292;51.532;7.650;2022-07-25T07:26:35;20.35;;;18.95;;
32934;SDS011;19292;51.532;7.650;2022-07-25T07:29:00;19.77;;;18.58;;
32934;SDS011;19292;51.532;7.650;2022-07-25T07:31:27;19.98;;;18.67;;
32934;SDS011;19292;51.532;7.650;2022-07-25T07:33:53;19.83;;;18.63;;
32934;SDS011;19292;51.532;7.650;2022-07-25T07:36:19;19.83;;;18.52;;
32934;SDS011;19292;51.532;7.650;2022-07-25T07:38:44;19.65;;;18.33;;
32934;SDS011;19292;51.532;7.650;2022-07-25T07:41:10;23.33;;;21.85;;
32934;SDS011;19292;51.532;7.650;2022-07-25T07:43:36;17.55;;;16.40;;
32934;SDS011;19292;51.532;7.650;2022-07-25T07:46:02;18.17;;;17.05;;
32934;SDS011;19292;51.532;7.650;2022-07-25T07:48:27;21.40;;;20.17;;
32934;SDS011;19292;51.532;7.650;2022-07-25T07:50:53;18.38;;;17.15;;
32934;SDS011;19292;51.532;7.650;2022-07-25T07:53:19;20.33;;;18.85;;
32934;SDS011;19292;51.532;7.650;2022-07-25T07:55:44;13.60;;;12.40;;
32934;SDS011;19292;51.532;7.650;2022-07-25T07:58:11;17.42;;;16.20;;
32934;SDS011;19292;51.532;7.650;2022-07-25T08:00:40;20.55;;;19.35;;
32934;SDS011;19292;51.532;7.650;2022-07-25T08:03:07;19.40;;;18.13;;
32934;SDS011;19292;51.532;7.650;2022-07-25T08:05:37;19.75;;;18.45;;
32934;SDS011;19292;51.532;7.650;2022-07-25T08:08:04;18.02;;;16.95;;
32934;SDS011;19292;51.532;7.650;2022-07-25T08:10:31;15.13;;;13.90;;
32934;SDS011;19292;51.532;7.650;2022-07-25T08:13:00;17.98;;;16.48;;
32934;SDS011;19292;51.532;7.650;2022-07-25T08:15:27;20.17;;;18.88;;
32934;SDS011;19292;51.532;7.650;2022-07-25T08:17:52;19.45;;;17.90;;
32934;SDS011;19292;51.532;7.650;2022-07-25T08:20:18;13.15;;;11.95;;
32934;SDS011;19292;51.532;7.650;2022-07-25T08:22:47;15.55;;;14.38;;
32934;SDS011;19292;51.532;7.650;2022-07-25T08:25:14;17.23;;;15.90;;
32934;SDS011;19292;51.532;7.650;2022-07-25T08:27:41;16.92;;;15.77;;
32934;SDS011;19292;51.532;7.650;2022-07-25T08:30:07;16.55;;;15.50;;
32934;SDS011;19292;51.532;7.650;2022-07-25T08:32:33;19.27;;;18.00;;
32934;SDS011;19292;51.532;7.650;2022-07-25T08:35:17;17.95;;;16.60;;
32934;SDS011;19292;51.532;7.650;2022-07-25T08:37:43;14.20;;;13.10;;
32934;SDS011;19292;51.532;7.650;2022-07-25T08:40:09;14.43;;;13.40;;
32934;SDS011;19292;51.532;7.650;2022-07-25T08:42:36;12.85;;;11.75;;
32934;SDS011;19292;51.532;7.650;2022-07-25T08:45:03;11.85;;;10.70;;
32934;SDS011;19292;51.532;7.650;2022-07-25T08:47:30;12.65;;;11.68;;
32934;SDS011;19292;51.532;7.650;2022-07-25T08:49:56;10.75;;;9.95;;
32934;SDS011;19292;51.532;7.650;2022-07-25T08:52:22;12.25;;;11.43;;
32934;SDS011;19292;51.532;7.650;2022-07-25T08:54:48;12.93;;;12.07;;
32934;SDS011;19292;51.532;7.650;2022-07-25T08:57:14;13.35;;;11.95;;
32934;SDS011;19292;51.532;7.650;2022-07-25T08:59:40;11.88;;;10.93;;
32934;SDS011;19292;51.532;7.650;2022-07-25T09:02:06;11.82;;;10.73;;
32934;SDS011;19292;51.532;7.650;2022-07-25T09:04:34;12.27;;;11.35;;
32934;SDS011;19292;51.532;7.650;2022-07-25T09:10:19;11.48;;;10.57;;
32934;SDS011;19292;51.532;7.650;2022-07-25T09:13:06;14.00;;;13.00;;
32934;SDS011;19292;51.532;7.650;2022-07-25T09:15:38;12.35;;;11.45;;
32934;SDS011;19292;51.532;7.650;2022-07-25T09:18:25;12.43;;;11.45;;
32934;SDS011;19292;51.532;7.650;2022-07-25T09:20:56;14.23;;;13.20;;
32934;SDS011;19292;51.532;7.650;2022-07-25T09:23:30;13.30;;;12.40;;
32934;SDS011;19292;51.532;7.650;2022-07-25T09:28:44;14.00;;;12.70;;
32934;SDS011;19292;51.532;7.650;2022-07-25T09:31:11;16.27;;;15.02;;
32934;SDS011;19292;51.532;7.650;2022-07-25T09:36:16;14.18;;;13.07;;
32934;SDS011;19292;51.532;7.650;2022-07-25T09:38:54;12.88;;;11.73;;
32934;SDS011;19292;51.532;7.650;2022-07-25T09:41:33;13.27;;;12.30;;
32934;SDS011;19292;51.532;7.650;2022-07-25T09:43:58;15.95;;;14.73;;
32934;SDS011;19292;51.532;7.650;2022-07-25T09:46:28;14.50;;;13.50;;
32934;SDS011;19292;51.532;7.650;2022-07-25T09:48:55;16.73;;;15.60;;
32934;SDS011;19292;51.532;7.650;2022-07-25T09:51:22;13.77;;;12.52;;
32934;SDS011;19292;51.532;7.650;2022-07-25T09:53:49;13.48;;;12.40;;
32934;SDS011;19292;51.532;7.650;2022-07-25T09:56:14;14.27;;;13.27;;
32934;SDS011;19292;51.532;7.650;2022-07-25T09:58:39;13.27;;;12.45;;
32934;SDS011;19292;51.532;7.650;2022-07-25T10:01:05;12.95;;;12.10;;
32934;SDS011;19292;51.532;7.650;2022-07-25T10:03:50;15.75;;;14.52;;
32934;SDS011;19292;51.532;7.650;2022-07-25T10:09:11;14.27;;;13.18;;
32934;SDS011;19292;51.532;7.650;2022-07-25T10:11:37;13.55;;;12.63;;
32934;SDS011;19292;51.532;7.650;2022-07-25T10:14:08;11.45;;;10.45;;
32934;SDS011;19292;51.532;7.650;2022-07-25T10:16:43;11.70;;;10.73;;
32934;SDS011;19292;51.532;7.650;2022-07-25T10:19:10;12.57;;;11.38;;
32934;SDS011;19292;51.532;7.650;2022-07-25T10:21:35;12.25;;;11.25;;
32934;SDS011;19292;51.532;7.650;2022-07-25T10:24:02;13.50;;;12.40;;
32934;SDS011;19292;51.532;7.650;2022-07-25T10:26:29;14.98;;;13.68;;
32934;SDS011;19292;51.532;7.650;2022-07-25T10:28:55;14.45;;;13.35;;
32934;SDS011;19292;51.532;7.650;2022-07-25T10:31:23;15.38;;;14.18;;
32934;SDS011;19292;51.532;7.650;2022-07-25T10:33:59;11.00;;;10.07;;
32934;SDS011;19292;51.532;7.650;2022-07-25T10:36:43;14.18;;;13.15;;
32934;SDS011;19292;51.532;7.650;2022-07-25T10:39:14;12.85;;;11.88;;
32934;SDS011;19292;51.532;7.650;2022-07-25T10:41:40;13.05;;;12.05;;
32934;SDS011;19292;51.532;7.650;2022-07-25T10:44:14;12.48;;;11.35;;
32934;SDS011;19292;51.532;7.650;2022-07-25T10:46:43;13.32;;;12.38;;
32934;SDS011;19292;51.532;7.650;2022-07-25T10:49:15;13.18;;;12.25;;
32934;SDS011;19292;51.532;7.650;2022-07-25T10:51:50;14.25;;;13.20;;
32934;SDS011;19292;51.532;7.650;2022-07-25T10:54:22;14.02;;;13.05;;
32934;SDS011;19292;51.532;7.650;2022-07-25T10:56:57;14.18;;;12.90;;
32934;SDS011;19292;51.532;7.650;2022-07-25T10:59:24;14.13;;;12.98;;
32934;SDS011;19292;51.532;7.650;2022-07-25T11:01:51;15.30;;;14.15;;
32934;SDS011;19292;51.532;7.650;2022-07-25T11:04:17;13.65;;;12.55;;
32934;SDS011;19292;51.532;7.650;2022-07-25T11:06:43;13.75;;;12.85;;
32934;SDS011;19292;51.532;7.650;2022-07-25T11:09:15;13.10;;;12.07;;
32934;SDS011;19292;51.532;7.650;2022-07-25T11:11:42;18.55;;;17.15;;
32934;SDS011;19292;51.532;7.650;2022-07-25T11:14:22;17.98;;;16.73;;
32934;SDS011;19292;51.532;7.650;2022-07-25T11:16:49;14.23;;;13.18;;
32934;SDS011;19292;51.532;7.650;2022-07-25T11:19:17;12.18;;;10.98;;
32934;SDS011;19292;51.532;7.650;2022-07-25T11:21:48;18.02;;;16.80;;
32934;SDS011;19292;51.532;7.650;2022-07-25T11:24:15;18.50;;;16.90;;
32934;SDS011;19292;51.532;7.650;2022-07-25T11:26:48;18.00;;;16.80;;
32934;SDS011;19292;51.532;7.650;2022-07-25T11:29:33;19.33;;;18.02;;
32934;SDS011;19292;51.532;7.650;2022-07-25T11:31:59;18.73;;;17.60;;
32934;SDS011;19292;51.532;7.650;2022-07-25T11:34:28;20.83;;;19.42;;
32934;SDS011;19292;51.532;7.650;2022-07-25T11:36:58;20.48;;;19.05;;
32934;SDS011;19292;51.532;7.650;2022-07-25T11:39:28;20.17;;;18.67;;
32934;SDS011;19292;51.532;7.650;2022-07-25T11:42:05;15.43;;;14.35;;
32934;SDS011;19292;51.532;7.650;2022-07-25T11:44:33;11.55;;;10.60;;
32934;SDS011;19292;51.532;7.650;2022-07-25T11:47:00;12.80;;;11.93;;
32934;SDS011;19292;51.532;7.650;2022-07-25T11:49:25;12.85;;;11.85;;
32934;SDS011;19292;51.532;7.650;2022-07-25T11:51:51;14.38;;;13.13;;
32934;SDS011;19292;51.532;7.650;2022-07-25T11:54:16;12.27;;;11.15;;
32934;SDS011;19292;51.532;7.650;2022-07-25T11:56:42;13.43;;;12.43;;
32934;SDS011;19292;51.532;7.650;2022-07-25T11:59:10;14.85;;;13.85;;
32934;SDS011;19292;51.532;7.650;2022-07-25T12:01:37;17.55;;;15.93;;
32934;SDS011;19292;51.532;7.650;2022-07-25T12:04:08;14.80;;;13.70;;
32934;SDS011;19292;51.532;7.650;2022-07-25T12:06:33;14.45;;;13.55;;
32934;SDS011;19292;51.532;7.650;2022-07-25T12:08:58;17.33;;;16.17;;
32934;SDS011;19292;51.532;7.650;2022-07-25T12:11:35;14.20;;;13.20;;
32934;SDS011;19292;51.532;7.650;2022-07-25T12:14:04;15.88;;;14.40;;
32934;SDS011;19292;51.532;7.650;2022-07-25T12:16:30;12.80;;;11.80;;
32934;SDS011;19292;51.532;7.650;2022-07-25T12:18:56;11.77;;;10.82;;
32934;SDS011;19292;51.532;7.650;2022-07-25T12:21:22;12.57;;;11.55;;
32934;SDS011;19292;51.532;7.650;2022-07-25T12:23:47;13.45;;;12.25;;
32934;SDS011;19292;51.532;7.650;2022-07-25T12:26:12;12.18;;;11.07;;
32934;SDS011;19292;51.532;7.650;2022-07-25T12:28:38;13.20;;;12.10;;
32934;SDS011;19292;51.532;7.650;2022-07-25T12:31:04;12.38;;;11.45;;
32934;SDS011;19292;51.532;7.650;2022-07-25T12:33:30;21.02;;;19.48;;
32934;SDS011;19292;51.532;7.650;2022-07-25T12:35:56;14.57;;;13.38;;
32934;SDS011;19292;51.532;7.650;2022-07-25T12:38:22;14.52;;;12.85;;
32934;SDS011;19292;51.532;7.650;2022-07-25T12:40:47;13.43;;;12.15;;
32934;SDS011;19292;51.532;7.650;2022-07-25T12:43:13;14.77;;;13.25;;
32934;SDS011;19292;51.532;7.650;2022-07-25T12:45:39;19.05;;;17.70;;
32934;SDS011;19292;51.532;7.650;2022-07-25T12:48:04;21.02;;;19.48;;
32934;SDS011;19292;51.532;7.650;2022-07-25T12:50:30;20.88;;;19.45;;
32934;SDS011;19292;51.532;7.650;2022-07-25T12:52:55;11.45;;;10.52;;
32934;SDS011;19292;51.532;7.650;2022-07-25T12:55:21;13.25;;;12.25;;
32934;SDS011;19292;51.532;7.650;2022-07-25T12:57:46;12.45;;;11.35;;
32934;SDS011;19292;51.532;7.650;2022-07-25T13:00:13;11.75;;;10.77;;
32934;SDS011;19292;51.532;7.650;2022-07-25T13:02:40;12.43;;;11.63;;
32934;SDS011;19292;51.532;7.650;2022-07-25T13:05:06;12.82;;;11.93;;
32934;SDS011;19292;51.532;7.650;2022-07-25T13:07:34;12.90;;;11.90;;
32934;SDS011;19292;51.532;7.650;2022-07-25T13:10:00;13.65;;;12.55;;
32934;SDS011;19292;51.532;7.650;2022-07-25T13:12:25;12.48;;;11.55;;
32934;SDS011;19292;51.532;7.650;2022-07-25T13:14:51;13.45;;;12.35;;
32934;SDS011;19292;51.532;7.650;2022-07-25T13:17:16;12.75;;;11.70;;
32934;SDS011;19292;51.532;7.650;2022-07-25T13:19:45;12.70;;;11.55;;
32934;SDS011;19292;51.532;7.650;2022-07-25T13:22:10;10.95;;;10.02;;
32934;SDS011;19292;51.532;7.650;2022-07-25T13:24:36;13.30;;;12.20;;
32934;SDS011;19292;51.532;7.650;2022-07-25T13:27:03;13.70;;;12.77;;
32934;SDS011;19292;51.532;7.650;2022-07-25T13:29:29;16.02;;;15.02;;
32934;SDS011;19292;51.532;7.650;2022-07-25T13:31:54;14.93;;;13.27;;
32934;SDS011;19292;51.532;7.650;2022-07-25T13:34:20;13.27;;;12.27;;
32934;SDS011;19292;51.532;7.650;2022-07-25T13:36:45;15.75;;;14.57;;
32934;SDS011;19292;51.532;7.650;2022-07-25T13:39:10;15.00;;;13.57;;
32934;SDS011;19292;51.532;7.650;2022-07-25T13:41:36;12.18;;;11.20;;
32934;SDS011;19292;51.532;7.650;2022-07-25T13:44:01;13.50;;;12.48;;
32934;SDS011;19292;51.532;7.650;2022-07-25T13:46:26;13.70;;;12.52;;
32934;SDS011;19292;51.532;7.650;2022-07-25T13:48:52;12.50;;;11.50;;
32934;SDS011;19292;51.532;7.650;2022-07-25T13:51:19;12.10;;;11.25;;
32934;SDS011;19292;51.532;7.650;2022-07-25T13:53:44;12.50;;;11.50;;
32934;SDS011;19292;51.532;7.650;2022-07-25T13:56:10;14.52;;;13.13;;
32934;SDS011;19292;51.532;7.650;2022-07-25T13:58:36;13.68;;;12.57;;
32934;SDS011;19292;51.532;7.650;2022-07-25T14:01:01;12.00;;;11.25;;
32934;SDS011;19292;51.532;7.650;2022-07-25T14:03:27;12.98;;;12.15;;
32934;SDS011;19292;51.532;7.650;2022-07-25T14:05:52;12.35;;;11.27;;
32934;SDS011;19292;51.532;7.650;2022-07-25T14:08:21;11.63;;;10.73;;
32934;SDS011;19292;51.532;7.650;2022-07-25T14:10:46;11.85;;;10.85;;
32934;SDS011;19292;51.532;7.650;2022-07-25T14:13:11;10.95;;;10.05;;
32934;SDS011;19292;51.532;7.650;2022-07-25T14:15:37;9.63;;;8.82;;
32934;SDS011;19292;51.532;7.650;2022-07-25T14:18:03;11.13;;;10.02;;
32934;SDS011;19292;51.532;7.650;2022-07-25T14:20:28;11.52;;;10.52;;
32934;SDS011;19292;51.532;7.650;2022-07-25T14:22:53;13.07;;;11.13;;
32934;SDS011;19292;51.532;7.650;2022-07-25T14:25:21;12.95;;;11.93;;
32934;SDS011;19292;51.532;7.650;2022-07-25T14:27:47;9.50;;;8.70;;
32934;SDS011;19292;51.532;7.650;2022-07-25T14:30:12;10.30;;;9.30;;